sensor_id;sensor_type;location;lat;lon;timestamp;P1;durP1;ratioP1;P2;durP2;ratioP2
17151;SDS011;8691;50.828;4.700;2023-01-26T00:00:00;83.75;;;44.00;;
17151;SDS011;8691;50.828;4.700;2023-01-26T00:02:27;83.17;;;43.17;;
17151;SDS011;8691;50.828;4.700;2023-01-26T00:04:54;83.90;;;43.40;;
17151;SDS011;8691;50.828;4.700;2023-01-26T00:07:22;84.22;;;43.75;;
17151;SDS011;8691;50.828;4.700;2023-01-26T00:09:50;82.88;;;43.67;;
17151;SDS011;8691;50.828;4.700;2023-01-26T00:12:16;83.97;;;42.27;;
17151;SDS011;8691;50.828;4.700;2023-01-26T00:14:43;63.20;;;29.20;;
17151;SDS011;8691;50.828;4.700;2023-01-26T00:17:16;78.87;;;41.57;;
17151;SDS011;8691;50.828;4.700;2023-01-26T00:19:45;79.62;;;41.95;;
17151;SDS011;8691;50.828;4.700;2023-01-26T00:22:12;88.65;;;43.85;;
17151;SDS011;8691;50.828;4.700;2023-01-26T00:24:39;87.35;;;44.15;;
17151;SDS011;8691;50.828;4.700;2023-01-26T00:27:06;84.65;;;43.05;;
17151;SDS011;8691;50.828;4.700;2023-01-26T00:29:33;85.30;;;44.13;;
17151;SDS011;8691;50.828;4.700;2023-01-26T00:32:00;84.60;;;43.63;;
17151;SDS011;8691;50.828;4.700;2023-01-26T00:34:28;81.55;;;42.83;;
17151;SDS011;8691;50.828;4.700;2023-01-26T00:36:56;86.75;;;43.80;;
17151;SDS011;8691;50.828;4.700;2023-01-26T00:39:23;83.78;;;43.55;;
17151;SDS011;8691;50.828;4.700;2023-01-26T00:41:50;64.10;;;30.30;;
17151;SDS011;8691;50.828;4.700;2023-01-26T00:44:32;84.97;;;44.12;;
17151;SDS011;8691;50.828;4.700;2023-01-26T00:46:58;85.17;;;43.93;;
17151;SDS011;8691;50.828;4.700;2023-01-26T00:49:25;85.50;;;44.20;;
17151;SDS011;8691;50.828;4.700;2023-01-26T00:51:52;82.93;;;44.40;;
17151;SDS011;8691;50.828;4.700;2023-01-26T00:54:19;83.53;;;43.33;;
17151;SDS011;8691;50.828;4.700;2023-01-26T00:56:46;88.93;;;44.90;;
17151;SDS011;8691;50.828;4.700;2023-01-26T00:59:13;88.32;;;45.12;;
17151;SDS011;8691;50.828;4.700;2023-01-26T01:01:40;83.25;;;43.78;;
17151;SDS011;8691;50.828;4.700;2023-01-26T01:04:07;80.60;;;42.90;;
17151;SDS011;8691;50.828;4.700;2023-01-26T01:06:34;83.35;;;43.47;;
17151;SDS011;8691;50.828;4.700;2023-01-26T01:09:01;81.75;;;43.55;;
17151;SDS011;8691;50.828;4.700;2023-01-26T01:11:28;81.07;;;42.23;;
17151;SDS011;8691;50.828;4.700;2023-01-26T01:13:55;78.30;;;42.57;;
17151;SDS011;8691;50.828;4.700;2023-01-26T01:16:21;77.60;;;41.40;;
17151;SDS011;8691;50.828;4.700;2023-01-26T01:18:51;76.57;;;41.57;;
17151;SDS011;8691;50.828;4.700;2023-01-26T01:21:15;75.97;;;41.40;;
17151;SDS011;8691;50.828;4.700;2023-01-26T01:23:42;74.87;;;42.27;;
17151;SDS011;8691;50.828;4.700;2023-01-26T01:26:09;72.23;;;41.00;;
17151;SDS011;8691;50.828;4.700;2023-01-26T01:28:37;73.68;;;40.62;;
17151;SDS011;8691;50.828;4.700;2023-01-26T01:31:05;76.95;;;40.95;;
17151;SDS011;8691;50.828;4.700;2023-01-26T01:33:31;74.62;;;41.50;;
17151;SDS011;8691;50.828;4.700;2023-01-26T01:35:58;77.75;;;42.38;;
17151;SDS011;8691;50.828;4.700;2023-01-26T01:38:25;74.90;;;42.12;;
17151;SDS011;8691;50.828;4.700;2023-01-26T01:40:52;78.45;;;43.88;;
17151;SDS011;8691;50.828;4.700;2023-01-26T01:43:19;75.95;;;42.75;;
17151;SDS011;8691;50.828;4.700;2023-01-26T01:45:46;79.32;;;43.17;;
17151;SDS011;8691;50.828;4.700;2023-01-26T01:48:36;78.72;;;43.33;;
17151;SDS011;8691;50.828;4.700;2023-01-26T01:50:58;80.22;;;42.35;;
17151;SDS011;8691;50.828;4.700;2023-01-26T01:53:29;78.72;;;42.75;;
17151;SDS011;8691;50.828;4.700;2023-01-26T01:55:55;78.68;;;42.10;;
17151;SDS011;8691;50.828;4.700;2023-01-26T01:58:21;80.53;;;43.78;;
17151;SDS011;8691;50.828;4.700;2023-01-26T02:00:48;76.03;;;41.90;;
17151;SDS011;8691;50.828;4.700;2023-01-26T02:03:15;81.50;;;43.47;;
17151;SDS011;8691;50.828;4.700;2023-01-26T02:08:21;82.03;;;42.70;;
17151;SDS011;8691;50.828;4.700;2023-01-26T02:10:48;80.95;;;41.95;;
17151;SDS011;8691;50.828;4.700;2023-01-26T02:13:15;76.30;;;41.43;;
17151;SDS011;8691;50.828;4.700;2023-01-26T02:15:44;76.90;;;43.10;;
17151;SDS011;8691;50.828;4.700;2023-01-26T02:18:11;79.80;;;42.15;;
17151;SDS011;8691;50.828;4.700;2023-01-26T02:26:02;78.10;;;41.67;;
17151;SDS011;8691;50.828;4.700;2023-01-26T02:28:34;77.45;;;41.65;;
17151;SDS011;8691;50.828;4.700;2023-01-26T02:31:01;74.53;;;41.05;;
17151;SDS011;8691;50.828;4.700;2023-01-26T02:33:28;73.57;;;40.95;;
17151;SDS011;8691;50.828;4.700;2023-01-26T02:35:54;72.70;;;40.42;;
17151;SDS011;8691;50.828;4.700;2023-01-26T02:38:22;77.35;;;42.60;;
17151;SDS011;8691;50.828;4.700;2023-01-26T02:40:50;73.60;;;40.38;;
17151;SDS011;8691;50.828;4.700;2023-01-26T02:43:22;67.50;;;38.30;;
17151;SDS011;8691;50.828;4.700;2023-01-26T02:45:48;70.18;;;39.85;;
17151;SDS011;8691;50.828;4.700;2023-01-26T02:48:15;76.28;;;41.50;;
17151;SDS011;8691;50.828;4.700;2023-01-26T02:50:41;72.15;;;39.88;;
17151;SDS011;8691;50.828;4.700;2023-01-26T02:53:08;73.28;;;40.40;;
17151;SDS011;8691;50.828;4.700;2023-01-26T02:55:35;74.53;;;40.17;;
17151;SDS011;8691;50.828;4.700;2023-01-26T02:58:03;70.45;;;39.05;;
17151;SDS011;8691;50.828;4.700;2023-01-26T03:00:30;71.00;;;39.95;;
17151;SDS011;8691;50.828;4.700;2023-01-26T03:02:57;68.70;;;38.50;;
17151;SDS011;8691;50.828;4.700;2023-01-26T03:05:24;68.43;;;38.57;;
17151;SDS011;8691;50.828;4.700;2023-01-26T03:07:52;65.25;;;38.80;;
17151;SDS011;8691;50.828;4.700;2023-01-26T03:10:19;66.77;;;37.70;;
17151;SDS011;8691;50.828;4.700;2023-01-26T03:12:46;67.47;;;38.70;;
17151;SDS011;8691;50.828;4.700;2023-01-26T03:15:13;67.67;;;39.27;;
17151;SDS011;8691;50.828;4.700;2023-01-26T03:18:02;50.60;;;27.77;;
17151;SDS011;8691;50.828;4.700;2023-01-26T03:20:49;67.33;;;38.70;;
17151;SDS011;8691;50.828;4.700;2023-01-26T03:23:33;56.53;;;28.00;;
17151;SDS011;8691;50.828;4.700;2023-01-26T03:26:18;48.30;;;25.03;;
17151;SDS011;8691;50.828;4.700;2023-01-26T03:29:03;63.57;;;36.13;;
17151;SDS011;8691;50.828;4.700;2023-01-26T03:31:30;63.57;;;37.50;;
17151;SDS011;8691;50.828;4.700;2023-01-26T03:33:58;61.17;;;36.38;;
17151;SDS011;8691;50.828;4.700;2023-01-26T03:36:25;63.03;;;36.62;;
17151;SDS011;8691;50.828;4.700;2023-01-26T03:38:52;59.80;;;36.20;;
17151;SDS011;8691;50.828;4.700;2023-01-26T03:41:19;64.50;;;37.28;;
17151;SDS011;8691;50.828;4.700;2023-01-26T03:44:04;51.70;;;27.20;;
17151;SDS011;8691;50.828;4.700;2023-01-26T03:46:49;46.53;;;25.13;;
17151;SDS011;8691;50.828;4.700;2023-01-26T03:49:34;61.77;;;35.57;;
17151;SDS011;8691;50.828;4.700;2023-01-26T03:52:19;64.37;;;37.77;;
17151;SDS011;8691;50.828;4.700;2023-01-26T03:55:04;50.17;;;26.90;;
17151;SDS011;8691;50.828;4.700;2023-01-26T03:57:49;52.00;;;26.10;;
17151;SDS011;8691;50.828;4.700;2023-01-26T04:00:16;74.10;;;40.93;;
17151;SDS011;8691;50.828;4.700;2023-01-26T04:02:43;74.55;;;41.15;;
17151;SDS011;8691;50.828;4.700;2023-01-26T04:05:28;60.57;;;31.10;;
17151;SDS011;8691;50.828;4.700;2023-01-26T04:08:12;57.20;;;28.67;;
17151;SDS011;8691;50.828;4.700;2023-01-26T04:10:54;52.50;;;27.27;;
17151;SDS011;8691;50.828;4.700;2023-01-26T04:13:22;76.40;;;40.73;;
17151;SDS011;8691;50.828;4.700;2023-01-26T04:16:06;59.93;;;28.57;;
17151;SDS011;8691;50.828;4.700;2023-01-26T04:18:50;80.97;;;42.53;;
17151;SDS011;8691;50.828;4.700;2023-01-26T04:21:35;76.57;;;42.00;;
17151;SDS011;8691;50.828;4.700;2023-01-26T04:24:02;79.27;;;42.47;;
17151;SDS011;8691;50.828;4.700;2023-01-26T04:26:29;77.23;;;40.73;;
17151;SDS011;8691;50.828;4.700;2023-01-26T04:29:05;77.57;;;42.33;;
17151;SDS011;8691;50.828;4.700;2023-01-26T04:31:32;75.10;;;41.40;;
17151;SDS011;8691;50.828;4.700;2023-01-26T04:34:02;70.47;;;40.75;;
17151;SDS011;8691;50.828;4.700;2023-01-26T04:36:25;72.43;;;40.05;;
17151;SDS011;8691;50.828;4.700;2023-01-26T04:38:52;70.80;;;39.53;;
17151;SDS011;8691;50.828;4.700;2023-01-26T04:41:19;73.78;;;40.05;;
17151;SDS011;8691;50.828;4.700;2023-01-26T04:43:47;72.78;;;39.50;;
17151;SDS011;8691;50.828;4.700;2023-01-26T04:46:14;71.90;;;39.33;;
17151;SDS011;8691;50.828;4.700;2023-01-26T04:48:42;73.32;;;39.33;;
17151;SDS011;8691;50.828;4.700;2023-01-26T04:51:16;69.32;;;39.28;;
17151;SDS011;8691;50.828;4.700;2023-01-26T04:53:42;71.10;;;39.80;;
17151;SDS011;8691;50.828;4.700;2023-01-26T04:56:14;67.47;;;38.75;;
17151;SDS011;8691;50.828;4.700;2023-01-26T04:58:36;67.97;;;38.40;;
17151;SDS011;8691;50.828;4.700;2023-01-26T05:01:03;70.82;;;39.60;;
17151;SDS011;8691;50.828;4.700;2023-01-26T05:03:31;67.62;;;37.78;;
17151;SDS011;8691;50.828;4.700;2023-01-26T05:05:57;65.12;;;38.03;;
17151;SDS011;8691;50.828;4.700;2023-01-26T05:08:24;67.47;;;38.12;;
17151;SDS011;8691;50.828;4.700;2023-01-26T05:10:51;69.62;;;39.08;;
17151;SDS011;8691;50.828;4.700;2023-01-26T05:13:18;72.67;;;39.23;;
17151;SDS011;8691;50.828;4.700;2023-01-26T05:15:45;69.40;;;39.05;;
17151;SDS011;8691;50.828;4.700;2023-01-26T05:18:12;68.15;;;38.20;;
17151;SDS011;8691;50.828;4.700;2023-01-26T05:20:39;69.47;;;38.83;;
17151;SDS011;8691;50.828;4.700;2023-01-26T05:23:06;68.55;;;38.47;;
17151;SDS011;8691;50.828;4.700;2023-01-26T05:25:33;69.93;;;38.73;;
17151;SDS011;8691;50.828;4.700;2023-01-26T05:28:00;72.47;;;39.33;;
17151;SDS011;8691;50.828;4.700;2023-01-26T05:30:27;72.70;;;39.70;;
17151;SDS011;8691;50.828;4.700;2023-01-26T05:32:58;69.65;;;38.65;;
17151;SDS011;8691;50.828;4.700;2023-01-26T05:35:21;68.22;;;38.05;;
17151;SDS011;8691;50.828;4.700;2023-01-26T05:37:48;67.50;;;38.17;;
17151;SDS011;8691;50.828;4.700;2023-01-26T05:40:15;64.93;;;37.25;;
17151;SDS011;8691;50.828;4.700;2023-01-26T05:42:42;69.18;;;38.95;;
17151;SDS011;8691;50.828;4.700;2023-01-26T05:45:09;64.93;;;36.47;;
17151;SDS011;8691;50.828;4.700;2023-01-26T05:47:36;64.40;;;37.55;;
17151;SDS011;8691;50.828;4.700;2023-01-26T05:50:03;68.15;;;37.17;;
17151;SDS011;8691;50.828;4.700;2023-01-26T05:52:30;71.00;;;38.07;;
17151;SDS011;8691;50.828;4.700;2023-01-26T05:54:57;63.58;;;36.80;;
17151;SDS011;8691;50.828;4.700;2023-01-26T05:57:24;64.72;;;36.47;;
17151;SDS011;8691;50.828;4.700;2023-01-26T05:59:51;62.88;;;37.30;;
17151;SDS011;8691;50.828;4.700;2023-01-26T06:02:18;65.93;;;37.43;;
17151;SDS011;8691;50.828;4.700;2023-01-26T06:04:45;62.40;;;35.88;;
17151;SDS011;8691;50.828;4.700;2023-01-26T06:07:12;52.67;;;25.97;;
17151;SDS011;8691;50.828;4.700;2023-01-26T06:09:39;64.00;;;35.87;;
17151;SDS011;8691;50.828;4.700;2023-01-26T06:12:10;59.23;;;35.20;;
17151;SDS011;8691;50.828;4.700;2023-01-26T06:14:34;63.78;;;36.20;;
17151;SDS011;8691;50.828;4.700;2023-01-26T06:17:02;63.28;;;35.33;;
17151;SDS011;8691;50.828;4.700;2023-01-26T06:19:28;61.90;;;36.12;;
17151;SDS011;8691;50.828;4.700;2023-01-26T06:21:55;66.45;;;38.12;;
17151;SDS011;8691;50.828;4.700;2023-01-26T06:24:23;52.57;;;30.40;;
17151;SDS011;8691;50.828;4.700;2023-01-26T06:26:50;67.28;;;45.53;;
17151;SDS011;8691;50.828;4.700;2023-01-26T06:29:18;60.83;;;34.75;;
17151;SDS011;8691;50.828;4.700;2023-01-26T06:31:46;63.67;;;36.67;;
17151;SDS011;8691;50.828;4.700;2023-01-26T06:34:14;63.35;;;36.75;;
17151;SDS011;8691;50.828;4.700;2023-01-26T06:36:41;63.77;;;36.43;;
17151;SDS011;8691;50.828;4.700;2023-01-26T06:39:08;55.40;;;32.57;;
17151;SDS011;8691;50.828;4.700;2023-01-26T06:41:35;58.13;;;34.23;;
17151;SDS011;8691;50.828;4.700;2023-01-26T06:44:02;57.07;;;34.50;;
17151;SDS011;8691;50.828;4.700;2023-01-26T06:46:28;60.03;;;34.27;;
17151;SDS011;8691;50.828;4.700;2023-01-26T06:48:55;56.53;;;33.27;;
17151;SDS011;8691;50.828;4.700;2023-01-26T06:54:23;59.20;;;33.95;;
17151;SDS011;8691;50.828;4.700;2023-01-26T06:56:50;56.97;;;33.33;;
17151;SDS011;8691;50.828;4.700;2023-01-26T06:59:17;71.10;;;45.42;;
17151;SDS011;8691;50.828;4.700;2023-01-26T07:01:44;55.60;;;32.95;;
17151;SDS011;8691;50.828;4.700;2023-01-26T07:04:11;55.87;;;33.47;;
17151;SDS011;8691;50.828;4.700;2023-01-26T07:06:38;56.63;;;32.17;;
17151;SDS011;8691;50.828;4.700;2023-01-26T07:09:05;56.30;;;31.70;;
17151;SDS011;8691;50.828;4.700;2023-01-26T07:11:32;53.53;;;31.77;;
17151;SDS011;8691;50.828;4.700;2023-01-26T07:13:58;49.90;;;30.07;;
17151;SDS011;8691;50.828;4.700;2023-01-26T07:16:25;51.57;;;31.57;;
17151;SDS011;8691;50.828;4.700;2023-01-26T07:18:52;52.67;;;32.37;;
17151;SDS011;8691;50.828;4.700;2023-01-26T07:21:19;54.47;;;32.20;;
17151;SDS011;8691;50.828;4.700;2023-01-26T07:23:46;52.43;;;31.77;;
17151;SDS011;8691;50.828;4.700;2023-01-26T07:26:13;46.93;;;28.97;;
17151;SDS011;8691;50.828;4.700;2023-01-26T07:28:39;54.57;;;35.60;;
17151;SDS011;8691;50.828;4.700;2023-01-26T07:31:06;50.57;;;29.70;;
17151;SDS011;8691;50.828;4.700;2023-01-26T07:33:33;48.27;;;29.30;;
17151;SDS011;8691;50.828;4.700;2023-01-26T07:36:00;51.93;;;30.50;;
17151;SDS011;8691;50.828;4.700;2023-01-26T07:38:27;48.13;;;29.07;;
17151;SDS011;8691;50.828;4.700;2023-01-26T07:40:56;49.60;;;29.20;;
17151;SDS011;8691;50.828;4.700;2023-01-26T07:43:24;48.83;;;29.98;;
17151;SDS011;8691;50.828;4.700;2023-01-26T07:45:51;49.33;;;28.48;;
17151;SDS011;8691;50.828;4.700;2023-01-26T07:48:18;47.72;;;28.38;;
17151;SDS011;8691;50.828;4.700;2023-01-26T07:50:45;46.70;;;29.08;;
17151;SDS011;8691;50.828;4.700;2023-01-26T07:53:11;50.47;;;28.75;;
17151;SDS011;8691;50.828;4.700;2023-01-26T07:55:38;47.77;;;28.83;;
17151;SDS011;8691;50.828;4.700;2023-01-26T07:58:05;48.60;;;29.38;;
17151;SDS011;8691;50.828;4.700;2023-01-26T08:00:32;47.58;;;28.20;;
17151;SDS011;8691;50.828;4.700;2023-01-26T08:02:59;47.33;;;28.25;;
17151;SDS011;8691;50.828;4.700;2023-01-26T08:05:26;45.27;;;28.00;;
17151;SDS011;8691;50.828;4.700;2023-01-26T08:07:55;47.20;;;28.27;;
17151;SDS011;8691;50.828;4.700;2023-01-26T08:10:19;44.77;;;27.73;;
17151;SDS011;8691;50.828;4.700;2023-01-26T08:12:46;44.00;;;28.10;;
17151;SDS011;8691;50.828;4.700;2023-01-26T08:15:13;49.30;;;28.97;;
17151;SDS011;8691;50.828;4.700;2023-01-26T08:17:40;44.57;;;28.00;;
17151;SDS011;8691;50.828;4.700;2023-01-26T08:20:07;43.20;;;27.03;;
17151;SDS011;8691;50.828;4.700;2023-01-26T08:22:34;44.70;;;28.23;;
17151;SDS011;8691;50.828;4.700;2023-01-26T08:25:01;45.87;;;28.37;;
17151;SDS011;8691;50.828;4.700;2023-01-26T08:27:28;44.97;;;28.07;;
17151;SDS011;8691;50.828;4.700;2023-01-26T08:29:55;45.33;;;27.90;;
17151;SDS011;8691;50.828;4.700;2023-01-26T08:32:22;36.27;;;20.20;;
17151;SDS011;8691;50.828;4.700;2023-01-26T08:34:50;44.95;;;26.95;;
17151;SDS011;8691;50.828;4.700;2023-01-26T08:37:17;42.83;;;26.17;;
17151;SDS011;8691;50.828;4.700;2023-01-26T08:39:44;45.67;;;28.17;;
17151;SDS011;8691;50.828;4.700;2023-01-26T08:42:11;48.67;;;28.17;;
17151;SDS011;8691;50.828;4.700;2023-01-26T08:44:38;45.95;;;27.45;;
17151;SDS011;8691;50.828;4.700;2023-01-26T08:47:04;43.25;;;26.62;;
17151;SDS011;8691;50.828;4.700;2023-01-26T08:49:31;44.85;;;27.25;;
17151;SDS011;8691;50.828;4.700;2023-01-26T08:51:58;46.05;;;27.80;;
17151;SDS011;8691;50.828;4.700;2023-01-26T08:54:25;45.77;;;27.90;;
17151;SDS011;8691;50.828;4.700;2023-01-26T08:56:52;45.13;;;27.90;;
17151;SDS011;8691;50.828;4.700;2023-01-26T08:59:19;45.40;;;28.20;;
17151;SDS011;8691;50.828;4.700;2023-01-26T09:01:47;46.20;;;27.47;;
17151;SDS011;8691;50.828;4.700;2023-01-26T09:04:13;44.63;;;26.83;;
17151;SDS011;8691;50.828;4.700;2023-01-26T09:06:40;42.88;;;27.00;;
17151;SDS011;8691;50.828;4.700;2023-01-26T09:09:07;43.03;;;26.30;;
17151;SDS011;8691;50.828;4.700;2023-01-26T09:11:34;40.07;;;25.57;;
17151;SDS011;8691;50.828;4.700;2023-01-26T09:14:01;41.53;;;26.57;;
17151;SDS011;8691;50.828;4.700;2023-01-26T09:16:28;36.93;;;24.43;;
17151;SDS011;8691;50.828;4.700;2023-01-26T09:18:54;39.50;;;24.20;;
17151;SDS011;8691;50.828;4.700;2023-01-26T09:21:22;35.53;;;22.83;;
17151;SDS011;8691;50.828;4.700;2023-01-26T09:23:49;34.10;;;22.45;;
17151;SDS011;8691;50.828;4.700;2023-01-26T09:26:15;34.78;;;23.90;;
17151;SDS011;8691;50.828;4.700;2023-01-26T09:28:42;31.30;;;21.27;;
17151;SDS011;8691;50.828;4.700;2023-01-26T09:31:10;32.28;;;21.92;;
17151;SDS011;8691;50.828;4.700;2023-01-26T09:33:36;29.77;;;20.58;;
17151;SDS011;8691;50.828;4.700;2023-01-26T09:36:04;32.58;;;21.05;;
17151;SDS011;8691;50.828;4.700;2023-01-26T09:38:30;28.92;;;20.17;;
17151;SDS011;8691;50.828;4.700;2023-01-26T09:41:13;29.80;;;20.42;;
17151;SDS011;8691;50.828;4.700;2023-01-26T09:46:15;27.80;;;19.83;;
17151;SDS011;8691;50.828;4.700;2023-01-26T09:51:50;27.63;;;19.47;;
17151;SDS011;8691;50.828;4.700;2023-01-26T09:56:55;25.20;;;18.35;;
17151;SDS011;8691;50.828;4.700;2023-01-26T09:59:29;23.75;;;17.83;;
17151;SDS011;8691;50.828;4.700;2023-01-26T10:02:00;25.73;;;17.88;;
17151;SDS011;8691;50.828;4.700;2023-01-26T10:04:29;24.23;;;17.23;;
17151;SDS011;8691;50.828;4.700;2023-01-26T10:06:56;21.73;;;16.63;;
17151;SDS011;8691;50.828;4.700;2023-01-26T10:09:23;21.98;;;15.88;;
17151;SDS011;8691;50.828;4.700;2023-01-26T10:11:53;22.65;;;16.10;;
17151;SDS011;8691;50.828;4.700;2023-01-26T10:17:02;21.02;;;16.38;;
17151;SDS011;8691;50.828;4.700;2023-01-26T10:22:15;24.00;;;17.77;;
17151;SDS011;8691;50.828;4.700;2023-01-26T10:24:40;19.97;;;14.90;;
17151;SDS011;8691;50.828;4.700;2023-01-26T10:27:10;18.88;;;14.93;;
17151;SDS011;8691;50.828;4.700;2023-01-26T10:29:37;19.90;;;14.77;;
17151;SDS011;8691;50.828;4.700;2023-01-26T10:32:04;20.15;;;14.38;;
17151;SDS011;8691;50.828;4.700;2023-01-26T10:34:31;14.60;;;10.93;;
17151;SDS011;8691;50.828;4.700;2023-01-26T10:37:21;18.92;;;14.10;;
17151;SDS011;8691;50.828;4.700;2023-01-26T10:39:26;18.25;;;14.07;;
17151;SDS011;8691;50.828;4.700;2023-01-26T10:41:58;18.20;;;14.00;;
17151;SDS011;8691;50.828;4.700;2023-01-26T10:44:34;18.70;;;14.03;;
17151;SDS011;8691;50.828;4.700;2023-01-26T10:47:01;21.67;;;14.27;;
17151;SDS011;8691;50.828;4.700;2023-01-26T10:49:27;22.20;;;14.85;;
17151;SDS011;8691;50.828;4.700;2023-01-26T10:54:44;19.12;;;13.65;;
17151;SDS011;8691;50.828;4.700;2023-01-26T10:59:47;19.08;;;13.43;;
17151;SDS011;8691;50.828;4.700;2023-01-26T11:04:37;18.83;;;13.00;;
17151;SDS011;8691;50.828;4.700;2023-01-26T11:07:23;17.23;;;12.43;;
17151;SDS011;8691;50.828;4.700;2023-01-26T11:09:46;18.27;;;13.30;;
17151;SDS011;8691;50.828;4.700;2023-01-26T11:12:16;20.95;;;13.20;;
17151;SDS011;8691;50.828;4.700;2023-01-26T11:14:40;19.52;;;13.32;;
17151;SDS011;8691;50.828;4.700;2023-01-26T11:17:20;20.13;;;13.23;;
17151;SDS011;8691;50.828;4.700;2023-01-26T11:20:33;20.67;;;14.37;;
17151;SDS011;8691;50.828;4.700;2023-01-26T11:22:32;21.48;;;14.68;;
17151;SDS011;8691;50.828;4.700;2023-01-26T11:25:07;22.70;;;15.32;;
17151;SDS011;8691;50.828;4.700;2023-01-26T11:27:35;23.80;;;14.77;;
17151;SDS011;8691;50.828;4.700;2023-01-26T11:33:24;24.50;;;15.05;;
17151;SDS011;8691;50.828;4.700;2023-01-26T11:36:05;23.70;;;14.57;;
17151;SDS011;8691;50.828;4.700;2023-01-26T11:38:34;24.87;;;11.60;;
17151;SDS011;8691;50.828;4.700;2023-01-26T11:41:13;23.27;;;14.90;;
17151;SDS011;8691;50.828;4.700;2023-01-26T11:46:31;28.38;;;16.50;;
17151;SDS011;8691;50.828;4.700;2023-01-26T11:49:22;22.00;;;15.40;;
17151;SDS011;8691;50.828;4.700;2023-01-26T11:51:59;24.33;;;15.07;;
17151;SDS011;8691;50.828;4.700;2023-01-26T11:57:33;19.60;;;14.03;;
17151;SDS011;8691;50.828;4.700;2023-01-26T12:00:03;21.80;;;14.67;;
17151;SDS011;8691;50.828;4.700;2023-01-26T12:02:50;21.02;;;14.60;;
17151;SDS011;8691;50.828;4.700;2023-01-26T12:07:50;20.77;;;14.43;;
17151;SDS011;8691;50.828;4.700;2023-01-26T12:10:18;18.98;;;11.38;;
17151;SDS011;8691;50.828;4.700;2023-01-26T12:12:48;22.02;;;15.73;;
17151;SDS011;8691;50.828;4.700;2023-01-26T12:15:18;26.75;;;16.45;;
17151;SDS011;8691;50.828;4.700;2023-01-26T12:25:35;30.33;;;18.87;;
17151;SDS011;8691;50.828;4.700;2023-01-26T12:28:04;31.07;;;19.13;;
17151;SDS011;8691;50.828;4.700;2023-01-26T12:30:42;33.92;;;20.10;;
17151;SDS011;8691;50.828;4.700;2023-01-26T12:33:18;34.30;;;15.50;;
17151;SDS011;8691;50.828;4.700;2023-01-26T12:35:58;37.73;;;20.57;;
17151;SDS011;8691;50.828;4.700;2023-01-26T12:41:23;41.92;;;22.20;;
17151;SDS011;8691;50.828;4.700;2023-01-26T12:43:58;46.10;;;23.00;;
17151;SDS011;8691;50.828;4.700;2023-01-26T12:46:27;47.08;;;23.52;;
17151;SDS011;8691;50.828;4.700;2023-01-26T12:48:58;47.85;;;24.67;;
17151;SDS011;8691;50.828;4.700;2023-01-26T12:51:28;43.58;;;23.02;;
17151;SDS011;8691;50.828;4.700;2023-01-26T12:54:09;48.20;;;25.10;;
17151;SDS011;8691;50.828;4.700;2023-01-26T12:56:43;46.40;;;25.13;;
17151;SDS011;8691;50.828;4.700;2023-01-26T12:59:14;45.90;;;24.37;;
17151;SDS011;8691;50.828;4.700;2023-01-26T13:01:38;50.90;;;24.58;;
17151;SDS011;8691;50.828;4.700;2023-01-26T13:04:08;52.97;;;26.02;;
17151;SDS011;8691;50.828;4.700;2023-01-26T13:06:34;49.93;;;26.30;;
17151;SDS011;8691;50.828;4.700;2023-01-26T13:09:03;51.27;;;26.57;;
17151;SDS011;8691;50.828;4.700;2023-01-26T13:16:52;47.40;;;26.45;;
17151;SDS011;8691;50.828;4.700;2023-01-26T13:24:55;53.42;;;27.52;;
17151;SDS011;8691;50.828;4.700;2023-01-26T13:27:32;49.70;;;27.13;;
17151;SDS011;8691;50.828;4.700;2023-01-26T13:29:58;49.70;;;25.93;;
17151;SDS011;8691;50.828;4.700;2023-01-26T13:34:55;49.33;;;26.10;;
17151;SDS011;8691;50.828;4.700;2023-01-26T13:40:23;51.97;;;27.47;;
17151;SDS011;8691;50.828;4.700;2023-01-26T13:53:59;46.57;;;23.93;;
17151;SDS011;8691;50.828;4.700;2023-01-26T13:56:38;45.90;;;24.45;;
17151;SDS011;8691;50.828;4.700;2023-01-26T13:59:09;43.63;;;24.10;;
17151;SDS011;8691;50.828;4.700;2023-01-26T14:01:50;43.40;;;24.40;;
17151;SDS011;8691;50.828;4.700;2023-01-26T14:04:19;45.80;;;23.67;;
17151;SDS011;8691;50.828;4.700;2023-01-26T14:06:47;41.42;;;22.35;;
17151;SDS011;8691;50.828;4.700;2023-01-26T14:09:12;43.85;;;21.80;;
17151;SDS011;8691;50.828;4.700;2023-01-26T14:11:39;42.15;;;21.98;;
17151;SDS011;8691;50.828;4.700;2023-01-26T14:14:10;40.70;;;21.48;;
17151;SDS011;8691;50.828;4.700;2023-01-26T14:16:34;40.38;;;20.88;;
17151;SDS011;8691;50.828;4.700;2023-01-26T14:21:49;42.80;;;22.20;;
17151;SDS011;8691;50.828;4.700;2023-01-26T14:24:15;39.08;;;20.85;;
17151;SDS011;8691;50.828;4.700;2023-01-26T14:26:42;42.15;;;21.17;;
17151;SDS011;8691;50.828;4.700;2023-01-26T14:29:14;37.42;;;19.45;;
17151;SDS011;8691;50.828;4.700;2023-01-26T14:31:38;32.28;;;16.92;;
17151;SDS011;8691;50.828;4.700;2023-01-26T14:34:07;37.67;;;16.90;;
17151;SDS011;8691;50.828;4.700;2023-01-26T14:36:32;38.17;;;17.00;;
17151;SDS011;8691;50.828;4.700;2023-01-26T14:38:59;33.05;;;15.75;;
17151;SDS011;8691;50.828;4.700;2023-01-26T14:41:30;31.20;;;15.18;;
17151;SDS011;8691;50.828;4.700;2023-01-26T14:43:57;31.75;;;15.27;;
17151;SDS011;8691;50.828;4.700;2023-01-26T14:48:54;28.60;;;14.25;;
17151;SDS011;8691;50.828;4.700;2023-01-26T14:51:20;27.73;;;14.57;;
17151;SDS011;8691;50.828;4.700;2023-01-26T14:53:48;33.07;;;15.93;;
17151;SDS011;8691;50.828;4.700;2023-01-26T14:56:18;28.83;;;14.83;;
17151;SDS011;8691;50.828;4.700;2023-01-26T14:58:41;37.33;;;19.08;;
17151;SDS011;8691;50.828;4.700;2023-01-26T15:01:08;32.28;;;16.35;;
17151;SDS011;8691;50.828;4.700;2023-01-26T15:03:35;35.72;;;15.27;;
17151;SDS011;8691;50.828;4.700;2023-01-26T15:08:39;26.00;;;12.00;;
17151;SDS011;8691;50.828;4.700;2023-01-26T15:11:06;27.00;;;11.43;;
17151;SDS011;8691;50.828;4.700;2023-01-26T15:13:51;20.67;;;9.10;;
17151;SDS011;8691;50.828;4.700;2023-01-26T15:16:20;27.87;;;12.90;;
17151;SDS011;8691;50.828;4.700;2023-01-26T15:19:02;30.10;;;10.70;;
17151;SDS011;8691;50.828;4.700;2023-01-26T15:21:34;24.17;;;9.10;;
17151;SDS011;8691;50.828;4.700;2023-01-26T15:24:00;26.40;;;8.73;;
17151;SDS011;8691;50.828;4.700;2023-01-26T15:26:31;20.70;;;6.00;;
17151;SDS011;8691;50.828;4.700;2023-01-26T15:28:59;16.88;;;6.03;;
17151;SDS011;8691;50.828;4.700;2023-01-26T15:31:29;19.95;;;5.97;;
17151;SDS011;8691;50.828;4.700;2023-01-26T15:33:55;17.27;;;5.60;;
17151;SDS011;8691;50.828;4.700;2023-01-26T15:36:32;10.40;;;3.97;;
17151;SDS011;8691;50.828;4.700;2023-01-26T15:39:15;16.65;;;4.85;;
17151;SDS011;8691;50.828;4.700;2023-01-26T15:41:41;17.15;;;4.97;;
17151;SDS011;8691;50.828;4.700;2023-01-26T15:44:10;16.52;;;4.65;;
17151;SDS011;8691;50.828;4.700;2023-01-26T15:46:37;17.92;;;5.10;;
17151;SDS011;8691;50.828;4.700;2023-01-26T15:49:04;13.00;;;4.00;;
17151;SDS011;8691;50.828;4.700;2023-01-26T15:51:30;17.60;;;4.78;;
17151;SDS011;8691;50.828;4.700;2023-01-26T15:53:58;18.60;;;5.80;;
17151;SDS011;8691;50.828;4.700;2023-01-26T15:56:25;21.02;;;8.65;;
17151;SDS011;8691;50.828;4.700;2023-01-26T15:58:52;19.15;;;5.82;;
17151;SDS011;8691;50.828;4.700;2023-01-26T16:01:20;20.03;;;5.10;;
17151;SDS011;8691;50.828;4.700;2023-01-26T16:03:46;16.73;;;5.00;;
17151;SDS011;8691;50.828;4.700;2023-01-26T16:06:16;14.55;;;4.43;;
17151;SDS011;8691;50.828;4.700;2023-01-26T16:08:46;17.88;;;5.43;;
17151;SDS011;8691;50.828;4.700;2023-01-26T16:11:13;15.60;;;4.90;;
17151;SDS011;8691;50.828;4.700;2023-01-26T16:13:40;20.10;;;5.90;;
17151;SDS011;8691;50.828;4.700;2023-01-26T16:16:07;17.33;;;5.05;;